sensor_id;sensor_type;location;lat;lon;timestamp;P1;durP1;ratioP1;P2;durP2;ratioP2
12100;SDS011;6113;42.678;23.334;2022-07-11T00:00:48;1.70;;;1.60;;
12100;SDS011;6113;42.678;23.334;2022-07-11T00:03:15;2.13;;;1.60;;
12100;SDS011;6113;42.678;23.334;2022-07-11T00:05:43;1.97;;;1.70;;
12100;SDS011;6113;42.678;23.334;2022-07-11T00:08:10;1.80;;;1.70;;
12100;SDS011;6113;42.678;23.334;2022-07-11T00:10:37;2.40;;;1.63;;
12100;SDS011;6113;42.678;23.334;2022-07-11T00:13:04;1.70;;;1.60;;
12100;SDS011;6113;42.678;23.334;2022-07-11T00:15:31;2.80;;;1.60;;
12100;SDS011;6113;42.678;23.334;2022-07-11T00:17:57;1.50;;;1.40;;
12100;SDS011;6113;42.678;23.334;2022-07-11T00:20:24;1.70;;;1.60;;
12100;SDS011;6113;42.678;23.334;2022-07-11T00:22:52;2.30;;;1.70;;
12100;SDS011;6113;42.678;23.334;2022-07-11T00:25:19;2.93;;;1.70;;
12100;SDS011;6113;42.678;23.334;2022-07-11T00:27:46;1.97;;;1.57;;
12100;SDS011;6113;42.678;23.334;2022-07-11T00:30:13;2.97;;;1.80;;
12100;SDS011;6113;42.678;23.334;2022-07-11T00:32:41;3.07;;;1.70;;
12100;SDS011;6113;42.678;23.334;2022-07-11T00:35:08;2.20;;;1.70;;
12100;SDS011;6113;42.678;23.334;2022-07-11T00:37:36;2.27;;;1.63;;
12100;SDS011;6113;42.678;23.334;2022-07-11T00:40:05;3.70;;;1.90;;
12100;SDS011;6113;42.678;23.334;2022-07-11T00:42:33;2.03;;;1.77;;
12100;SDS011;6113;42.678;23.334;2022-07-11T00:45:00;2.00;;;1.70;;
12100;SDS011;6113;42.678;23.334;2022-07-11T00:47:27;1.87;;;1.70;;
12100;SDS011;6113;42.678;23.334;2022-07-11T00:49:53;2.13;;;1.70;;
12100;SDS011;6113;42.678;23.334;2022-07-11T00:52:22;1.80;;;1.70;;
12100;SDS011;6113;42.678;23.334;2022-07-11T00:54:49;2.03;;;1.67;;
12100;SDS011;6113;42.678;23.334;2022-07-11T00:57:18;4.67;;;1.50;;
12100;SDS011;6113;42.678;23.334;2022-07-11T00:59:45;1.87;;;1.60;;
12100;SDS011;6113;42.678;23.334;2022-07-11T01:02:13;2.10;;;1.90;;
12100;SDS011;6113;42.678;23.334;2022-07-11T01:04:39;1.73;;;1.60;;
12100;SDS011;6113;42.678;23.334;2022-07-11T01:07:06;1.50;;;1.40;;
12100;SDS011;6113;42.678;23.334;2022-07-11T01:09:33;1.90;;;1.80;;
12100;SDS011;6113;42.678;23.334;2022-07-11T01:12:00;2.17;;;1.73;;
12100;SDS011;6113;42.678;23.334;2022-07-11T01:14:28;2.20;;;2.00;;
12100;SDS011;6113;42.678;23.334;2022-07-11T01:16:55;2.43;;;1.53;;
12100;SDS011;6113;42.678;23.334;2022-07-11T01:19:22;2.10;;;1.60;;
12100;SDS011;6113;42.678;23.334;2022-07-11T01:21:49;2.80;;;1.70;;
12100;SDS011;6113;42.678;23.334;2022-07-11T01:24:19;1.60;;;1.50;;
12100;SDS011;6113;42.678;23.334;2022-07-11T01:26:47;1.80;;;1.70;;
12100;SDS011;6113;42.678;23.334;2022-07-11T01:29:14;2.70;;;2.00;;
12100;SDS011;6113;42.678;23.334;2022-07-11T01:31:41;1.70;;;1.60;;
12100;SDS011;6113;42.678;23.334;2022-07-11T01:34:09;1.80;;;1.70;;
12100;SDS011;6113;42.678;23.334;2022-07-11T01:36:37;1.93;;;1.73;;
12100;SDS011;6113;42.678;23.334;2022-07-11T01:39:05;3.63;;;1.93;;
12100;SDS011;6113;42.678;23.334;2022-07-11T01:41:33;2.43;;;2.03;;
12100;SDS011;6113;42.678;23.334;2022-07-11T01:44:00;2.00;;;1.90;;
12100;SDS011;6113;42.678;23.334;2022-07-11T01:46:27;1.97;;;1.57;;
12100;SDS011;6113;42.678;23.334;2022-07-11T01:48:54;1.83;;;1.57;;
12100;SDS011;6113;42.678;23.334;2022-07-11T01:51:21;2.70;;;1.60;;
12100;SDS011;6113;42.678;23.334;2022-07-11T01:53:49;2.43;;;1.60;;
12100;SDS011;6113;42.678;23.334;2022-07-11T01:56:16;1.63;;;1.50;;
12100;SDS011;6113;42.678;23.334;2022-07-11T01:58:44;2.13;;;1.67;;
12100;SDS011;6113;42.678;23.334;2022-07-11T02:01:11;1.57;;;1.47;;
12100;SDS011;6113;42.678;23.334;2022-07-11T02:03:37;1.83;;;1.60;;
12100;SDS011;6113;42.678;23.334;2022-07-11T02:06:05;1.40;;;1.40;;
12100;SDS011;6113;42.678;23.334;2022-07-11T02:08:32;1.90;;;1.60;;
12100;SDS011;6113;42.678;23.334;2022-07-11T02:10:59;1.70;;;1.60;;
12100;SDS011;6113;42.678;23.334;2022-07-11T02:13:25;2.20;;;1.50;;
12100;SDS011;6113;42.678;23.334;2022-07-11T02:15:54;1.80;;;1.70;;
12100;SDS011;6113;42.678;23.334;2022-07-11T02:18:21;3.73;;;1.50;;
12100;SDS011;6113;42.678;23.334;2022-07-11T02:20:48;1.83;;;1.73;;
12100;SDS011;6113;42.678;23.334;2022-07-11T02:23:15;1.83;;;1.50;;
12100;SDS011;6113;42.678;23.334;2022-07-11T02:25:43;2.00;;;1.53;;
12100;SDS011;6113;42.678;23.334;2022-07-11T02:28:11;1.60;;;1.50;;
12100;SDS011;6113;42.678;23.334;2022-07-11T02:30:38;1.90;;;1.80;;
12100;SDS011;6113;42.678;23.334;2022-07-11T02:33:08;1.60;;;1.50;;
12100;SDS011;6113;42.678;23.334;2022-07-11T02:35:38;1.80;;;1.70;;
12100;SDS011;6113;42.678;23.334;2022-07-11T02:38:06;1.77;;;1.67;;
12100;SDS011;6113;42.678;23.334;2022-07-11T02:40:33;2.53;;;1.40;;
12100;SDS011;6113;42.678;23.334;2022-07-11T02:43:00;2.43;;;1.60;;
12100;SDS011;6113;42.678;23.334;2022-07-11T02:45:26;1.43;;;1.33;;
12100;SDS011;6113;42.678;23.334;2022-07-11T02:47:53;1.70;;;1.60;;
12100;SDS011;6113;42.678;23.334;2022-07-11T02:50:21;1.60;;;1.50;;
12100;SDS011;6113;42.678;23.334;2022-07-11T02:52:48;1.93;;;1.50;;
12100;SDS011;6113;42.678;23.334;2022-07-11T02:55:15;2.67;;;1.30;;
12100;SDS011;6113;42.678;23.334;2022-07-11T02:57:42;1.70;;;1.60;;
12100;SDS011;6113;42.678;23.334;2022-07-11T03:00:10;2.07;;;1.80;;
12100;SDS011;6113;42.678;23.334;2022-07-11T03:02:39;1.60;;;1.50;;
12100;SDS011;6113;42.678;23.334;2022-07-11T03:05:06;2.50;;;1.60;;
12100;SDS011;6113;42.678;23.334;2022-07-11T03:07:35;1.97;;;1.50;;
12100;SDS011;6113;42.678;23.334;2022-07-11T03:10:02;1.70;;;1.60;;
12100;SDS011;6113;42.678;23.334;2022-07-11T03:12:30;2.47;;;1.60;;
12100;SDS011;6113;42.678;23.334;2022-07-11T03:14:57;2.43;;;1.80;;
12100;SDS011;6113;42.678;23.334;2022-07-11T03:17:23;1.53;;;1.43;;
12100;SDS011;6113;42.678;23.334;2022-07-11T03:19:50;1.70;;;1.60;;
12100;SDS011;6113;42.678;23.334;2022-07-11T03:22:17;2.00;;;1.60;;
12100;SDS011;6113;42.678;23.334;2022-07-11T03:24:45;5.53;;;1.73;;
12100;SDS011;6113;42.678;23.334;2022-07-11T03:27:12;2.67;;;1.80;;
12100;SDS011;6113;42.678;23.334;2022-07-11T03:29:39;2.53;;;1.70;;
12100;SDS011;6113;42.678;23.334;2022-07-11T03:32:07;2.60;;;1.80;;
12100;SDS011;6113;42.678;23.334;2022-07-11T03:34:34;2.27;;;1.70;;
12100;SDS011;6113;42.678;23.334;2022-07-11T03:37:02;2.47;;;2.07;;
12100;SDS011;6113;42.678;23.334;2022-07-11T03:39:29;1.60;;;1.50;;
12100;SDS011;6113;42.678;23.334;2022-07-11T03:42:16;3.63;;;2.00;;
12100;SDS011;6113;42.678;23.334;2022-07-11T03:44:42;1.70;;;1.60;;
12100;SDS011;6113;42.678;23.334;2022-07-11T03:47:09;2.47;;;1.90;;
12100;SDS011;6113;42.678;23.334;2022-07-11T03:49:36;1.73;;;1.63;;
12100;SDS011;6113;42.678;23.334;2022-07-11T03:52:03;2.20;;;1.77;;
12100;SDS011;6113;42.678;23.334;2022-07-11T03:54:30;2.73;;;2.00;;
12100;SDS011;6113;42.678;23.334;2022-07-11T03:56:57;1.73;;;1.63;;
12100;SDS011;6113;42.678;23.334;2022-07-11T03:59:25;2.80;;;1.90;;
12100;SDS011;6113;42.678;23.334;2022-07-11T04:01:52;1.87;;;1.70;;
12100;SDS011;6113;42.678;23.334;2022-07-11T04:04:19;1.70;;;1.60;;
12100;SDS011;6113;42.678;23.334;2022-07-11T04:06:45;3.33;;;2.30;;
12100;SDS011;6113;42.678;23.334;2022-07-11T04:09:12;1.83;;;1.73;;
12100;SDS011;6113;42.678;23.334;2022-07-11T04:11:39;4.90;;;2.50;;
12100;SDS011;6113;42.678;23.334;2022-07-11T04:14:06;3.67;;;2.37;;
12100;SDS011;6113;42.678;23.334;2022-07-11T04:16:35;2.63;;;2.27;;
12100;SDS011;6113;42.678;23.334;2022-07-11T04:19:02;2.97;;;1.90;;
12100;SDS011;6113;42.678;23.334;2022-07-11T04:21:29;2.10;;;2.00;;
12100;SDS011;6113;42.678;23.334;2022-07-11T04:23:56;3.23;;;2.23;;
12100;SDS011;6113;42.678;23.334;2022-07-11T04:26:23;1.90;;;1.80;;
12100;SDS011;6113;42.678;23.334;2022-07-11T04:28:49;2.20;;;2.00;;
12100;SDS011;6113;42.678;23.334;2022-07-11T04:31:16;2.13;;;1.90;;
12100;SDS011;6113;42.678;23.334;2022-07-11T04:33:44;40.70;;;31.20;;
12100;SDS011;6113;42.678;23.334;2022-07-11T04:36:11;80.63;;;70.87;;
12100;SDS011;6113;42.678;23.334;2022-07-11T04:38:47;80.78;;;70.68;;
12100;SDS011;6113;42.678;23.334;2022-07-11T04:41:14;116.20;;;97.93;;
12100;SDS011;6113;42.678;23.334;2022-07-11T04:43:41;5.40;;;4.50;;
12100;SDS011;6113;42.678;23.334;2022-07-11T04:46:09;1.93;;;1.83;;
12100;SDS011;6113;42.678;23.334;2022-07-11T04:48:36;2.60;;;2.40;;
12100;SDS011;6113;42.678;23.334;2022-07-11T04:51:05;2.00;;;1.80;;
12100;SDS011;6113;42.678;23.334;2022-07-11T04:53:32;2.83;;;2.30;;
12100;SDS011;6113;42.678;23.334;2022-07-11T04:55:58;4.13;;;1.97;;
12100;SDS011;6113;42.678;23.334;2022-07-11T04:58:25;3.70;;;2.00;;
12100;SDS011;6113;42.678;23.334;2022-07-11T05:00:52;2.20;;;2.00;;
12100;SDS011;6113;42.678;23.334;2022-07-11T05:03:19;89.57;;;75.30;;
12100;SDS011;6113;42.678;23.334;2022-07-11T05:05:46;211.73;;;176.13;;
12100;SDS011;6113;42.678;23.334;2022-07-11T05:08:14;189.63;;;140.03;;
12100;SDS011;6113;42.678;23.334;2022-07-11T05:10:41;46.93;;;39.93;;
12100;SDS011;6113;42.678;23.334;2022-07-11T05:13:08;5.43;;;2.57;;
12100;SDS011;6113;42.678;23.334;2022-07-11T05:15:34;2.90;;;2.33;;
12100;SDS011;6113;42.678;23.334;2022-07-11T05:18:01;3.80;;;2.37;;
12100;SDS011;6113;42.678;23.334;2022-07-11T05:20:28;3.00;;;2.10;;
12100;SDS011;6113;42.678;23.334;2022-07-11T05:22:55;2.00;;;1.90;;
12100;SDS011;6113;42.678;23.334;2022-07-11T05:25:24;2.47;;;2.27;;
12100;SDS011;6113;42.678;23.334;2022-07-11T05:27:51;8.50;;;2.60;;
12100;SDS011;6113;42.678;23.334;2022-07-11T05:30:18;2.43;;;2.23;;
12100;SDS011;6113;42.678;23.334;2022-07-11T05:32:45;5.37;;;2.33;;
12100;SDS011;6113;42.678;23.334;2022-07-11T05:35:11;3.60;;;2.43;;
12100;SDS011;6113;42.678;23.334;2022-07-11T05:37:38;3.00;;;2.43;;
12100;SDS011;6113;42.678;23.334;2022-07-11T05:40:06;2.83;;;2.63;;
12100;SDS011;6113;42.678;23.334;2022-07-11T05:42:35;2.50;;;2.30;;
12100;SDS011;6113;42.678;23.334;2022-07-11T05:45:02;4.53;;;2.50;;
12100;SDS011;6113;42.678;23.334;2022-07-11T05:47:29;2.83;;;1.80;;
12100;SDS011;6113;42.678;23.334;2022-07-11T05:49:55;5.70;;;2.17;;
12100;SDS011;6113;42.678;23.334;2022-07-11T05:52:22;2.57;;;1.70;;
12100;SDS011;6113;42.678;23.334;2022-07-11T05:54:49;2.87;;;1.93;;
12100;SDS011;6113;42.678;23.334;2022-07-11T05:57:16;5.37;;;1.53;;
12100;SDS011;6113;42.678;23.334;2022-07-11T05:59:44;2.93;;;1.70;;
12100;SDS011;6113;42.678;23.334;2022-07-11T06:02:11;1.57;;;1.30;;
12100;SDS011;6113;42.678;23.334;2022-07-11T06:04:38;1.90;;;1.30;;
12100;SDS011;6113;42.678;23.334;2022-07-11T06:07:07;2.37;;;1.47;;
12100;SDS011;6113;42.678;23.334;2022-07-11T06:09:34;5.20;;;1.80;;
12100;SDS011;6113;42.678;23.334;2022-07-11T06:12:00;7.47;;;1.47;;
12100;SDS011;6113;42.678;23.334;2022-07-11T06:14:27;2.23;;;1.60;;
12100;SDS011;6113;42.678;23.334;2022-07-11T06:16:55;1.60;;;1.50;;
12100;SDS011;6113;42.678;23.334;2022-07-11T06:19:22;2.77;;;1.73;;
12100;SDS011;6113;42.678;23.334;2022-07-11T06:21:49;2.67;;;1.87;;
12100;SDS011;6113;42.678;23.334;2022-07-11T06:24:17;5.57;;;2.07;;
12100;SDS011;6113;42.678;23.334;2022-07-11T06:26:44;1.70;;;1.60;;
12100;SDS011;6113;42.678;23.334;2022-07-11T06:29:11;2.80;;;1.77;;
12100;SDS011;6113;42.678;23.334;2022-07-11T06:31:38;4.37;;;2.00;;
12100;SDS011;6113;42.678;23.334;2022-07-11T06:34:06;6.83;;;2.87;;
12100;SDS011;6113;42.678;23.334;2022-07-11T06:36:33;5.23;;;4.60;;
12100;SDS011;6113;42.678;23.334;2022-07-11T06:39:00;2.83;;;2.30;;
12100;SDS011;6113;42.678;23.334;2022-07-11T06:41:26;3.10;;;1.73;;
12100;SDS011;6113;42.678;23.334;2022-07-11T06:43:53;3.73;;;2.50;;
12100;SDS011;6113;42.678;23.334;2022-07-11T06:46:20;4.67;;;2.17;;
12100;SDS011;6113;42.678;23.334;2022-07-11T06:48:47;4.43;;;3.40;;
12100;SDS011;6113;42.678;23.334;2022-07-11T06:51:15;6.17;;;3.53;;
12100;SDS011;6113;42.678;23.334;2022-07-11T06:53:42;6.70;;;4.50;;
12100;SDS011;6113;42.678;23.334;2022-07-11T06:56:08;2.90;;;2.00;;
12100;SDS011;6113;42.678;23.334;2022-07-11T06:58:35;5.07;;;3.03;;
12100;SDS011;6113;42.678;23.334;2022-07-11T07:01:03;9.57;;;4.20;;
12100;SDS011;6113;42.678;23.334;2022-07-11T07:03:31;12.17;;;5.83;;
12100;SDS011;6113;42.678;23.334;2022-07-11T07:05:59;8.73;;;5.70;;
12100;SDS011;6113;42.678;23.334;2022-07-11T07:08:28;4.97;;;1.70;;
12100;SDS011;6113;42.678;23.334;2022-07-11T07:10:56;4.23;;;1.20;;
12100;SDS011;6113;42.678;23.334;2022-07-11T07:13:23;1.30;;;1.20;;
12100;SDS011;6113;42.678;23.334;2022-07-11T07:15:51;2.40;;;1.10;;
12100;SDS011;6113;42.678;23.334;2022-07-11T07:18:18;2.63;;;1.33;;
12100;SDS011;6113;42.678;23.334;2022-07-11T07:20:45;1.80;;;1.03;;
12100;SDS011;6113;42.678;23.334;2022-07-11T07:23:13;5.90;;;1.53;;
12100;SDS011;6113;42.678;23.334;2022-07-11T07:25:42;2.30;;;1.40;;
12100;SDS011;6113;42.678;23.334;2022-07-11T07:28:09;1.83;;;1.60;;
12100;SDS011;6113;42.678;23.334;2022-07-11T07:30:35;2.90;;;1.40;;
12100;SDS011;6113;42.678;23.334;2022-07-11T07:33:02;3.00;;;1.43;;
12100;SDS011;6113;42.678;23.334;2022-07-11T07:35:29;2.17;;;1.40;;
12100;SDS011;6113;42.678;23.334;2022-07-11T07:37:56;1.67;;;1.20;;
12100;SDS011;6113;42.678;23.334;2022-07-11T07:40:23;1.80;;;1.50;;
12100;SDS011;6113;42.678;23.334;2022-07-11T07:42:51;2.30;;;1.53;;
12100;SDS011;6113;42.678;23.334;2022-07-11T07:45:18;2.30;;;1.83;;
12100;SDS011;6113;42.678;23.334;2022-07-11T07:47:44;2.73;;;1.27;;
12100;SDS011;6113;42.678;23.334;2022-07-11T07:50:11;2.83;;;1.70;;
12100;SDS011;6113;42.678;23.334;2022-07-11T07:52:38;1.77;;;1.10;;
12100;SDS011;6113;42.678;23.334;2022-07-11T07:55:05;5.20;;;2.60;;
12100;SDS011;6113;42.678;23.334;2022-07-11T07:57:33;2.90;;;2.70;;
12100;SDS011;6113;42.678;23.334;2022-07-11T08:00:01;5.67;;;3.67;;
12100;SDS011;6113;42.678;23.334;2022-07-11T08:02:46;9.07;;;5.10;;
12100;SDS011;6113;42.678;23.334;2022-07-11T08:05:13;8.97;;;4.87;;
12100;SDS011;6113;42.678;23.334;2022-07-11T08:07:40;8.47;;;4.23;;
12100;SDS011;6113;42.678;23.334;2022-07-11T08:10:07;8.77;;;6.23;;
12100;SDS011;6113;42.678;23.334;2022-07-11T08:12:35;13.37;;;6.23;;
12100;SDS011;6113;42.678;23.334;2022-07-11T08:15:03;5.83;;;4.00;;
12100;SDS011;6113;42.678;23.334;2022-07-11T08:17:31;6.80;;;4.00;;
12100;SDS011;6113;42.678;23.334;2022-07-11T08:19:57;7.47;;;2.83;;
12100;SDS011;6113;42.678;23.334;2022-07-11T08:22:24;7.13;;;2.23;;
12100;SDS011;6113;42.678;23.334;2022-07-11T08:24:51;7.73;;;1.80;;
12100;SDS011;6113;42.678;23.334;2022-07-11T08:27:18;1.20;;;1.10;;
12100;SDS011;6113;42.678;23.334;2022-07-11T08:29:46;3.37;;;1.60;;
12100;SDS011;6113;42.678;23.334;2022-07-11T08:32:14;6.50;;;2.53;;
12100;SDS011;6113;42.678;23.334;2022-07-11T08:34:41;3.30;;;2.00;;
12100;SDS011;6113;42.678;23.334;2022-07-11T08:37:08;3.17;;;1.47;;
12100;SDS011;6113;42.678;23.334;2022-07-11T08:39:34;2.03;;;1.40;;
12100;SDS011;6113;42.678;23.334;2022-07-11T08:42:01;1.53;;;1.43;;
12100;SDS011;6113;42.678;23.334;2022-07-11T08:44:29;1.30;;;1.20;;
12100;SDS011;6113;42.678;23.334;2022-07-11T08:46:56;5.03;;;1.30;;
12100;SDS011;6113;42.678;23.334;2022-07-11T08:49:25;6.23;;;1.37;;
12100;SDS011;6113;42.678;23.334;2022-07-11T08:51:54;2.53;;;1.30;;
12100;SDS011;6113;42.678;23.334;2022-07-11T08:54:21;2.00;;;1.60;;
12100;SDS011;6113;42.678;23.334;2022-07-11T08:56:48;2.73;;;1.40;;
12100;SDS011;6113;42.678;23.334;2022-07-11T08:59:17;1.53;;;1.23;;
12100;SDS011;6113;42.678;23.334;2022-07-11T09:01:44;1.10;;;1.00;;
12100;SDS011;6113;42.678;23.334;2022-07-11T09:04:12;1.73;;;1.27;;
12100;SDS011;6113;42.678;23.334;2022-07-11T09:06:42;3.33;;;0.97;;
12100;SDS011;6113;42.678;23.334;2022-07-11T09:09:09;2.53;;;1.20;;
12100;SDS011;6113;42.678;23.334;2022-07-11T09:14:22;1.43;;;1.13;;
12100;SDS011;6113;42.678;23.334;2022-07-11T09:16:53;1.47;;;1.30;;
12100;SDS011;6113;42.678;23.334;2022-07-11T09:19:21;2.20;;;1.00;;
12100;SDS011;6113;42.678;23.334;2022-07-11T09:21:57;3.43;;;1.40;;
12100;SDS011;6113;42.678;23.334;2022-07-11T09:24:56;2.53;;;1.03;;
12100;SDS011;6113;42.678;23.334;2022-07-11T09:27:42;2.00;;;1.17;;
12100;SDS011;6113;42.678;23.334;2022-07-11T09:30:21;2.40;;;1.03;;
12100;SDS011;6113;42.678;23.334;2022-07-11T09:32:56;2.93;;;1.20;;
12100;SDS011;6113;42.678;23.334;2022-07-11T09:35:26;2.10;;;1.27;;
12100;SDS011;6113;42.678;23.334;2022-07-11T09:37:55;5.00;;;1.30;;
12100;SDS011;6113;42.678;23.334;2022-07-11T09:40:22;6.43;;;1.27;;
12100;SDS011;6113;42.678;23.334;2022-07-11T09:42:51;3.03;;;1.33;;
12100;SDS011;6113;42.678;23.334;2022-07-11T09:45:20;3.80;;;1.97;;
12100;SDS011;6113;42.678;23.334;2022-07-11T09:47:49;2.03;;;1.83;;
12100;SDS011;6113;42.678;23.334;2022-07-11T09:50:18;3.97;;;2.70;;
12100;SDS011;6113;42.678;23.334;2022-07-11T09:53:00;2.30;;;2.10;;
12100;SDS011;6113;42.678;23.334;2022-07-11T09:55:28;2.00;;;1.87;;
12100;SDS011;6113;42.678;23.334;2022-07-11T09:57:55;4.43;;;2.07;;
12100;SDS011;6113;42.678;23.334;2022-07-11T10:00:22;1.70;;;1.60;;
12100;SDS011;6113;42.678;23.334;2022-07-11T10:02:50;2.23;;;1.43;;
12100;SDS011;6113;42.678;23.334;2022-07-11T10:05:18;2.07;;;1.43;;
12100;SDS011;6113;42.678;23.334;2022-07-11T10:07:45;2.63;;;0.90;;
12100;SDS011;6113;42.678;23.334;2022-07-11T10:10:13;3.57;;;1.20;;
12100;SDS011;6113;42.678;23.334;2022-07-11T10:12:40;2.40;;;1.13;;
12100;SDS011;6113;42.678;23.334;2022-07-11T10:15:08;2.70;;;1.17;;
12100;SDS011;6113;42.678;23.334;2022-07-11T10:17:39;1.60;;;1.50;;
12100;SDS011;6113;42.678;23.334;2022-07-11T10:20:24;1.57;;;1.10;;
12100;SDS011;6113;42.678;23.334;2022-07-11T10:22:57;4.07;;;1.53;;
12100;SDS011;6113;42.678;23.334;2022-07-11T10:25:35;3.20;;;1.27;;
12100;SDS011;6113;42.678;23.334;2022-07-11T10:30:57;1.57;;;1.43;;
12100;SDS011;6113;42.678;23.334;2022-07-11T10:33:25;4.30;;;1.53;;
12100;SDS011;6113;42.678;23.334;2022-07-11T10:35:52;1.53;;;1.30;;
12100;SDS011;6113;42.678;23.334;2022-07-11T10:38:19;2.33;;;1.10;;
12100;SDS011;6113;42.678;23.334;2022-07-11T10:40:49;2.07;;;1.20;;
12100;SDS011;6113;42.678;23.334;2022-07-11T10:43:33;1.00;;;1.00;;
12100;SDS011;6113;42.678;23.334;2022-07-11T10:46:04;1.53;;;1.33;;
12100;SDS011;6113;42.678;23.334;2022-07-11T10:48:33;2.83;;;1.20;;
12100;SDS011;6113;42.678;23.334;2022-07-11T10:51:03;1.97;;;1.13;;
12100;SDS011;6113;42.678;23.334;2022-07-11T10:53:38;1.30;;;1.17;;
12100;SDS011;6113;42.678;23.334;2022-07-11T10:56:12;1.90;;;1.10;;
12100;SDS011;6113;42.678;23.334;2022-07-11T10:59:02;3.87;;;1.20;;
12100;SDS011;6113;42.678;23.334;2022-07-11T11:04:45;3.03;;;1.37;;
12100;SDS011;6113;42.678;23.334;2022-07-11T11:07:29;2.03;;;1.00;;
12100;SDS011;6113;42.678;23.334;2022-07-11T11:09:59;5.47;;;1.30;;
12100;SDS011;6113;42.678;23.334;2022-07-11T11:15:32;4.53;;;1.30;;
12100;SDS011;6113;42.678;23.334;2022-07-11T11:21:12;2.80;;;1.30;;
12100;SDS011;6113;42.678;23.334;2022-07-11T11:23:41;1.27;;;1.10;;
12100;SDS011;6113;42.678;23.334;2022-07-11T11:26:10;4.17;;;1.47;;
12100;SDS011;6113;42.678;23.334;2022-07-11T11:31:23;2.33;;;1.30;;
12100;SDS011;6113;42.678;23.334;2022-07-11T11:33:50;4.57;;;1.43;;
12100;SDS011;6113;42.678;23.334;2022-07-11T11:36:18;1.40;;;1.30;;
12100;SDS011;6113;42.678;23.334;2022-07-11T11:38:45;4.57;;;2.80;;
12100;SDS011;6113;42.678;23.334;2022-07-11T11:41:13;2.10;;;1.90;;
12100;SDS011;6113;42.678;23.334;2022-07-11T11:43:42;1.50;;;1.40;;
12100;SDS011;6113;42.678;23.334;2022-07-11T11:46:11;1.80;;;1.23;;
12100;SDS011;6113;42.678;23.334;2022-07-11T11:48:40;1.10;;;1.00;;
12100;SDS011;6113;42.678;23.334;2022-07-11T11:51:11;1.33;;;1.20;;
12100;SDS011;6113;42.678;23.334;2022-07-11T11:53:40;4.87;;;1.40;;
12100;SDS011;6113;42.678;23.334;2022-07-11T11:56:12;4.40;;;1.53;;
12100;SDS011;6113;42.678;23.334;2022-07-11T11:58:41;2.43;;;1.20;;
12100;SDS011;6113;42.678;23.334;2022-07-11T12:01:09;4.67;;;1.43;;
12100;SDS011;6113;42.678;23.334;2022-07-11T12:03:50;2.63;;;1.10;;
12100;SDS011;6113;42.678;23.334;2022-07-11T12:06:22;3.07;;;1.20;;
12100;SDS011;6113;42.678;23.334;2022-07-11T12:08:50;3.03;;;1.30;;
12100;SDS011;6113;42.678;23.334;2022-07-11T12:11:17;3.20;;;2.37;;
12100;SDS011;6113;42.678;23.334;2022-07-11T12:13:44;2.10;;;1.93;;
12100;SDS011;6113;42.678;23.334;2022-07-11T12:16:11;3.67;;;1.23;;
12100;SDS011;6113;42.678;23.334;2022-07-11T12:18:58;0.80;;;0.80;;
12100;SDS011;6113;42.678;23.334;2022-07-11T12:21:27;1.07;;;1.07;;
12100;SDS011;6113;42.678;23.334;2022-07-11T12:23:54;3.30;;;1.50;;
12100;SDS011;6113;42.678;23.334;2022-07-11T12:26:22;2.13;;;1.00;;
12100;SDS011;6113;42.678;23.334;2022-07-11T12:29:02;1.40;;;1.30;;
12100;SDS011;6113;42.678;23.334;2022-07-11T12:31:39;4.20;;;1.20;;
12100;SDS011;6113;42.678;23.334;2022-07-11T12:34:08;1.63;;;1.30;;
12100;SDS011;6113;42.678;23.334;2022-07-11T12:36:35;3.43;;;1.03;;
12100;SDS011;6113;42.678;23.334;2022-07-11T12:39:02;2.30;;;1.40;;
12100;SDS011;6113;42.678;23.334;2022-07-11T12:41:30;1.50;;;1.40;;
12100;SDS011;6113;42.678;23.334;2022-07-11T12:43:57;2.50;;;1.53;;
12100;SDS011;6113;42.678;23.334;2022-07-11T12:46:42;1.40;;;1.30;;
12100;SDS011;6113;42.678;23.334;2022-07-11T12:49:13;1.83;;;1.40;;
12100;SDS011;6113;42.678;23.334;2022-07-11T12:51:43;1.50;;;1.40;;
12100;SDS011;6113;42.678;23.334;2022-07-11T12:54:12;1.63;;;1.30;;
12100;SDS011;6113;42.678;23.334;2022-07-11T12:56:40;1.40;;;1.30;;
12100;SDS011;6113;42.678;23.334;2022-07-11T12:59:18;2.03;;;1.50;;
12100;SDS011;6113;42.678;23.334;2022-07-11T13:01:56;2.20;;;1.40;;
12100;SDS011;6113;42.678;23.334;2022-07-11T13:04:33;2.30;;;1.33;;
12100;SDS011;6113;42.678;23.334;2022-07-11T13:10:11;2.63;;;1.30;;
12100;SDS011;6113;42.678;23.334;2022-07-11T13:12:40;4.40;;;1.70;;
12100;SDS011;6113;42.678;23.334;2022-07-11T13:15:07;3.23;;;1.40;;
12100;SDS011;6113;42.678;23.334;2022-07-11T13:17:36;1.50;;;1.40;;
12100;SDS011;6113;42.678;23.334;2022-07-11T13:20:07;2.73;;;1.23;;
12100;SDS011;6113;42.678;23.334;2022-07-11T13:22:35;1.63;;;1.53;;
12100;SDS011;6113;42.678;23.334;2022-07-11T13:25:03;2.43;;;1.40;;
12100;SDS011;6113;42.678;23.334;2022-07-11T13:27:30;1.30;;;1.20;;
12100;SDS011;6113;42.678;23.334;2022-07-11T13:29:59;4.10;;;1.50;;
12100;SDS011;6113;42.678;23.334;2022-07-11T13:32:26;2.33;;;1.40;;
12100;SDS011;6113;42.678;23.334;2022-07-11T13:34:53;2.00;;;1.43;;
12100;SDS011;6113;42.678;23.334;2022-07-11T13:37:21;3.50;;;1.50;;
12100;SDS011;6113;42.678;23.334;2022-07-11T13:39:49;1.60;;;1.50;;
12100;SDS011;6113;42.678;23.334;2022-07-11T13:42:15;2.80;;;1.20;;
12100;SDS011;6113;42.678;23.334;2022-07-11T13:44:42;2.37;;;1.90;;
12100;SDS011;6113;42.678;23.334;2022-07-11T13:47:09;2.20;;;2.10;;
12100;SDS011;6113;42.678;23.334;2022-07-11T13:49:37;2.73;;;1.50;;
12100;SDS011;6113;42.678;23.334;2022-07-11T13:52:04;3.10;;;2.40;;
12100;SDS011;6113;42.678;23.334;2022-07-11T13:54:32;2.70;;;1.70;;
12100;SDS011;6113;42.678;23.334;2022-07-11T13:56:59;1.80;;;1.50;;
12100;SDS011;6113;42.678;23.334;2022-07-11T13:59:26;2.27;;;1.20;;
12100;SDS011;6113;42.678;23.334;2022-07-11T14:01:53;1.47;;;1.27;;
12100;SDS011;6113;42.678;23.334;2022-07-11T14:04:19;1.20;;;1.10;;
12100;SDS011;6113;42.678;23.334;2022-07-11T14:06:46;3.97;;;3.67;;
12100;SDS011;6113;42.678;23.334;2022-07-11T14:09:13;3.30;;;1.30;;
12100;SDS011;6113;42.678;23.334;2022-07-11T14:11:41;1.73;;;1.40;;
12100;SDS011;6113;42.678;23.334;2022-07-11T14:14:08;2.20;;;1.10;;
12100;SDS011;6113;42.678;23.334;2022-07-11T14:16:35;2.50;;;1.20;;
12100;SDS011;6113;42.678;23.334;2022-07-11T14:19:02;1.47;;;1.00;;
12100;SDS011;6113;42.678;23.334;2022-07-11T14:21:32;1.40;;;1.30;;
12100;SDS011;6113;42.678;23.334;2022-07-11T14:23:59;4.77;;;1.60;;
12100;SDS011;6113;42.678;23.334;2022-07-11T14:26:26;6.00;;;1.50;;
12100;SDS011;6113;42.678;23.334;2022-07-11T14:28:55;1.83;;;1.20;;
12100;SDS011;6113;42.678;23.334;2022-07-11T14:31:22;1.50;;;1.40;;
12100;SDS011;6113;42.678;23.334;2022-07-11T14:33:49;3.00;;;1.50;;
12100;SDS011;6113;42.678;23.334;2022-07-11T14:36:18;1.90;;;1.40;;
12100;SDS011;6113;42.678;23.334;2022-07-11T14:38:46;1.87;;;1.20;;
12100;SDS011;6113;42.678;23.334;2022-07-11T14:41:14;2.17;;;1.30;;
12100;SDS011;6113;42.678;23.334;2022-07-11T14:43:42;2.37;;;1.47;;
12100;SDS011;6113;42.678;23.334;2022-07-11T14:46:10;1.60;;;1.50;;
12100;SDS011;6113;42.678;23.334;2022-07-11T14:48:37;2.40;;;2.07;;
12100;SDS011;6113;42.678;23.334;2022-07-11T14:51:04;3.10;;;1.90;;
12100;SDS011;6113;42.678;23.334;2022-07-11T14:53:31;1.90;;;1.80;;
12100;SDS011;6113;42.678;23.334;2022-07-11T14:55:58;1.70;;;1.60;;
12100;SDS011;6113;42.678;23.334;2022-07-11T14:58:25;1.50;;;1.40;;
12100;SDS011;6113;42.678;23.334;2022-07-11T15:00:52;1.37;;;1.30;;
12100;SDS011;6113;42.678;23.334;2022-07-11T15:03:20;1.43;;;1.40;;
12100;SDS011;6113;42.678;23.334;2022-07-11T15:06:09;3.47;;;1.60;;
12100;SDS011;6113;42.678;23.334;2022-07-11T15:08:37;1.67;;;1.33;;
12100;SDS011;6113;42.678;23.334;2022-07-11T15:11:21;2.90;;;1.50;;
12100;SDS011;6113;42.678;23.334;2022-07-11T15:14:19;2.90;;;1.70;;
12100;SDS011;6113;42.678;23.334;2022-07-11T15:16:46;3.00;;;1.60;;